sensor_id;sensor_type;location;lat;lon;timestamp;P1;durP1;ratioP1;P2;durP2;ratioP2
19861;SDS011;10093;48.148;8.542;2022-07-22T00:01:05;9.32;;;8.20;;
19861;SDS011;10093;48.148;8.542;2022-07-22T00:03:31;10.10;;;7.63;;
19861;SDS011;10093;48.148;8.542;2022-07-22T00:05:56;8.45;;;7.57;;
19861;SDS011;10093;48.148;8.542;2022-07-22T00:08:22;10.00;;;7.60;;
19861;SDS011;10093;48.148;8.542;2022-07-22T00:10:47;9.30;;;7.85;;
19861;SDS011;10093;48.148;8.542;2022-07-22T00:13:13;8.77;;;7.53;;
19861;SDS011;10093;48.148;8.542;2022-07-22T00:15:39;9.07;;;7.28;;
19861;SDS011;10093;48.148;8.542;2022-07-22T00:18:05;9.27;;;6.95;;
19861;SDS011;10093;48.148;8.542;2022-07-22T00:20:30;8.13;;;7.32;;
19861;SDS011;10093;48.148;8.542;2022-07-22T00:22:56;7.88;;;7.07;;
19861;SDS011;10093;48.148;8.542;2022-07-22T00:25:23;11.90;;;7.22;;
19861;SDS011;10093;48.148;8.542;2022-07-22T00:27:49;7.90;;;7.10;;
19861;SDS011;10093;48.148;8.542;2022-07-22T00:30:14;8.05;;;7.22;;
19861;SDS011;10093;48.148;8.542;2022-07-22T00:32:40;9.00;;;7.85;;
19861;SDS011;10093;48.148;8.542;2022-07-22T00:35:06;9.15;;;7.28;;
19861;SDS011;10093;48.148;8.542;2022-07-22T00:37:32;9.02;;;7.68;;
19861;SDS011;10093;48.148;8.542;2022-07-22T00:39:57;8.77;;;7.88;;
19861;SDS011;10093;48.148;8.542;2022-07-22T00:42:23;8.38;;;7.57;;
19861;SDS011;10093;48.148;8.542;2022-07-22T00:44:49;8.48;;;7.55;;
19861;SDS011;10093;48.148;8.542;2022-07-22T00:47:14;9.18;;;8.10;;
19861;SDS011;10093;48.148;8.542;2022-07-22T00:49:40;9.00;;;7.53;;
19861;SDS011;10093;48.148;8.542;2022-07-22T00:52:05;8.55;;;7.18;;
19861;SDS011;10093;48.148;8.542;2022-07-22T00:54:32;8.63;;;7.07;;
19861;SDS011;10093;48.148;8.542;2022-07-22T00:56:58;9.48;;;8.00;;
19861;SDS011;10093;48.148;8.542;2022-07-22T00:59:24;9.77;;;7.85;;
19861;SDS011;10093;48.148;8.542;2022-07-22T01:01:50;8.98;;;7.60;;
19861;SDS011;10093;48.148;8.542;2022-07-22T01:04:16;9.02;;;8.13;;
19861;SDS011;10093;48.148;8.542;2022-07-22T01:06:42;8.27;;;7.47;;
19861;SDS011;10093;48.148;8.542;2022-07-22T01:09:09;8.68;;;7.75;;
19861;SDS011;10093;48.148;8.542;2022-07-22T01:11:36;10.43;;;7.97;;
19861;SDS011;10093;48.148;8.542;2022-07-22T01:14:02;8.93;;;7.97;;
19861;SDS011;10093;48.148;8.542;2022-07-22T01:16:28;8.80;;;7.82;;
19861;SDS011;10093;48.148;8.542;2022-07-22T01:18:54;9.43;;;8.45;;
19861;SDS011;10093;48.148;8.542;2022-07-22T01:21:20;11.38;;;8.40;;
19861;SDS011;10093;48.148;8.542;2022-07-22T01:23:46;10.18;;;8.10;;
19861;SDS011;10093;48.148;8.542;2022-07-22T01:26:13;11.93;;;8.90;;
19861;SDS011;10093;48.148;8.542;2022-07-22T01:28:39;9.18;;;8.25;;
19861;SDS011;10093;48.148;8.542;2022-07-22T01:31:05;11.88;;;9.27;;
19861;SDS011;10093;48.148;8.542;2022-07-22T01:33:31;9.60;;;8.57;;
19861;SDS011;10093;48.148;8.542;2022-07-22T01:35:58;10.65;;;8.88;;
19861;SDS011;10093;48.148;8.542;2022-07-22T01:38:24;11.02;;;8.23;;
19861;SDS011;10093;48.148;8.542;2022-07-22T01:40:50;12.32;;;8.90;;
19861;SDS011;10093;48.148;8.542;2022-07-22T01:43:15;9.77;;;8.77;;
19861;SDS011;10093;48.148;8.542;2022-07-22T01:45:43;9.32;;;8.32;;
19861;SDS011;10093;48.148;8.542;2022-07-22T01:48:09;10.85;;;8.60;;
19861;SDS011;10093;48.148;8.542;2022-07-22T01:50:35;8.70;;;7.90;;
19861;SDS011;10093;48.148;8.542;2022-07-22T01:53:01;10.93;;;8.30;;
19861;SDS011;10093;48.148;8.542;2022-07-22T01:55:27;9.00;;;8.05;;
19861;SDS011;10093;48.148;8.542;2022-07-22T01:57:53;10.32;;;8.30;;
19861;SDS011;10093;48.148;8.542;2022-07-22T02:00:18;11.15;;;8.85;;
19861;SDS011;10093;48.148;8.542;2022-07-22T02:02:45;9.77;;;8.70;;
19861;SDS011;10093;48.148;8.542;2022-07-22T02:05:11;8.82;;;7.93;;
19861;SDS011;10093;48.148;8.542;2022-07-22T02:07:38;10.52;;;8.65;;
19861;SDS011;10093;48.148;8.542;2022-07-22T02:10:04;9.40;;;8.40;;
19861;SDS011;10093;48.148;8.542;2022-07-22T02:12:30;9.55;;;8.57;;
19861;SDS011;10093;48.148;8.542;2022-07-22T02:14:56;9.07;;;8.18;;
19861;SDS011;10093;48.148;8.542;2022-07-22T02:17:22;10.52;;;9.13;;
19861;SDS011;10093;48.148;8.542;2022-07-22T02:19:47;9.15;;;8.25;;
19861;SDS011;10093;48.148;8.542;2022-07-22T02:22:13;9.90;;;8.90;;
19861;SDS011;10093;48.148;8.542;2022-07-22T02:24:39;10.18;;;8.98;;
19861;SDS011;10093;48.148;8.542;2022-07-22T02:27:04;9.93;;;8.80;;
19861;SDS011;10093;48.148;8.542;2022-07-22T02:29:31;12.48;;;9.13;;
19861;SDS011;10093;48.148;8.542;2022-07-22T02:31:57;10.90;;;9.02;;
19861;SDS011;10093;48.148;8.542;2022-07-22T02:34:23;9.60;;;8.65;;
19861;SDS011;10093;48.148;8.542;2022-07-22T02:36:50;8.98;;;8.13;;
19861;SDS011;10093;48.148;8.542;2022-07-22T02:39:15;9.57;;;8.63;;
19861;SDS011;10093;48.148;8.542;2022-07-22T02:41:41;12.57;;;8.73;;
19861;SDS011;10093;48.148;8.542;2022-07-22T02:44:06;11.55;;;8.35;;
19861;SDS011;10093;48.148;8.542;2022-07-22T02:46:32;10.35;;;9.05;;
19861;SDS011;10093;48.148;8.542;2022-07-22T02:48:58;10.48;;;8.88;;
19861;SDS011;10093;48.148;8.542;2022-07-22T02:51:23;10.60;;;8.75;;
19861;SDS011;10093;48.148;8.542;2022-07-22T02:53:49;9.68;;;8.68;;
19861;SDS011;10093;48.148;8.542;2022-07-22T02:56:15;11.25;;;9.27;;
19861;SDS011;10093;48.148;8.542;2022-07-22T02:58:41;10.88;;;9.18;;
19861;SDS011;10093;48.148;8.542;2022-07-22T03:01:07;11.65;;;9.88;;
19861;SDS011;10093;48.148;8.542;2022-07-22T03:03:33;11.63;;;9.25;;
19861;SDS011;10093;48.148;8.542;2022-07-22T03:05:59;12.65;;;9.43;;
19861;SDS011;10093;48.148;8.542;2022-07-22T03:08:25;10.27;;;8.75;;
19861;SDS011;10093;48.148;8.542;2022-07-22T03:10:51;10.35;;;9.27;;
19861;SDS011;10093;48.148;8.542;2022-07-22T03:13:18;10.35;;;9.25;;
19861;SDS011;10093;48.148;8.542;2022-07-22T03:15:43;11.27;;;8.70;;
19861;SDS011;10093;48.148;8.542;2022-07-22T03:18:09;10.25;;;9.20;;
19861;SDS011;10093;48.148;8.542;2022-07-22T03:20:35;10.20;;;7.95;;
19861;SDS011;10093;48.148;8.542;2022-07-22T03:23:01;10.05;;;8.98;;
19861;SDS011;10093;48.148;8.542;2022-07-22T03:25:27;9.35;;;8.38;;
19861;SDS011;10093;48.148;8.542;2022-07-22T03:27:53;12.63;;;9.57;;
19861;SDS011;10093;48.148;8.542;2022-07-22T03:30:19;10.13;;;9.13;;
19861;SDS011;10093;48.148;8.542;2022-07-22T03:32:44;11.15;;;9.32;;
19861;SDS011;10093;48.148;8.542;2022-07-22T03:35:12;11.30;;;9.43;;
19861;SDS011;10093;48.148;8.542;2022-07-22T03:37:38;11.80;;;10.43;;
19861;SDS011;10093;48.148;8.542;2022-07-22T03:40:04;11.25;;;10.07;;
19861;SDS011;10093;48.148;8.542;2022-07-22T03:42:30;11.65;;;9.25;;
19861;SDS011;10093;48.148;8.542;2022-07-22T03:44:56;11.85;;;9.90;;
19861;SDS011;10093;48.148;8.542;2022-07-22T03:47:22;10.85;;;8.85;;
19861;SDS011;10093;48.148;8.542;2022-07-22T03:49:48;10.25;;;8.82;;
19861;SDS011;10093;48.148;8.542;2022-07-22T03:52:14;12.52;;;8.73;;
19861;SDS011;10093;48.148;8.542;2022-07-22T03:54:40;9.55;;;8.55;;
19861;SDS011;10093;48.148;8.542;2022-07-22T03:57:06;11.20;;;9.40;;
19861;SDS011;10093;48.148;8.542;2022-07-22T03:59:32;11.60;;;9.70;;
19861;SDS011;10093;48.148;8.542;2022-07-22T04:01:58;10.27;;;9.25;;
19861;SDS011;10093;48.148;8.542;2022-07-22T04:04:24;11.65;;;9.98;;
19861;SDS011;10093;48.148;8.542;2022-07-22T04:06:49;11.63;;;9.43;;
19861;SDS011;10093;48.148;8.542;2022-07-22T04:09:16;12.80;;;10.52;;
19861;SDS011;10093;48.148;8.542;2022-07-22T04:11:42;11.18;;;10.07;;
19861;SDS011;10093;48.148;8.542;2022-07-22T04:14:08;13.13;;;9.48;;
19861;SDS011;10093;48.148;8.542;2022-07-22T04:16:34;15.10;;;10.90;;
19861;SDS011;10093;48.148;8.542;2022-07-22T04:19:00;11.73;;;10.05;;
19861;SDS011;10093;48.148;8.542;2022-07-22T04:21:26;13.00;;;10.13;;
19861;SDS011;10093;48.148;8.542;2022-07-22T04:23:52;12.90;;;9.45;;
19861;SDS011;10093;48.148;8.542;2022-07-22T04:26:18;10.75;;;8.85;;
19861;SDS011;10093;48.148;8.542;2022-07-22T04:28:44;10.93;;;8.55;;
19861;SDS011;10093;48.148;8.542;2022-07-22T04:31:10;9.82;;;8.77;;
19861;SDS011;10093;48.148;8.542;2022-07-22T04:33:35;10.23;;;8.98;;
19861;SDS011;10093;48.148;8.542;2022-07-22T04:36:01;10.05;;;8.48;;
19861;SDS011;10093;48.148;8.542;2022-07-22T04:38:27;9.98;;;8.98;;
19861;SDS011;10093;48.148;8.542;2022-07-22T04:40:52;12.07;;;8.40;;
19861;SDS011;10093;48.148;8.542;2022-07-22T04:43:18;11.48;;;9.07;;
19861;SDS011;10093;48.148;8.542;2022-07-22T04:45:44;9.50;;;8.52;;
19861;SDS011;10093;48.148;8.542;2022-07-22T04:48:09;10.00;;;8.90;;
19861;SDS011;10093;48.148;8.542;2022-07-22T04:50:35;8.55;;;7.75;;
19861;SDS011;10093;48.148;8.542;2022-07-22T04:53:02;8.77;;;7.88;;
19861;SDS011;10093;48.148;8.542;2022-07-22T04:55:27;11.00;;;8.10;;
19861;SDS011;10093;48.148;8.542;2022-07-22T04:57:53;12.35;;;7.78;;
19861;SDS011;10093;48.148;8.542;2022-07-22T05:00:18;8.93;;;8.02;;
19861;SDS011;10093;48.148;8.542;2022-07-22T05:02:44;7.65;;;6.85;;
19861;SDS011;10093;48.148;8.542;2022-07-22T05:05:10;7.70;;;6.82;;
19861;SDS011;10093;48.148;8.542;2022-07-22T05:07:36;8.40;;;7.60;;
19861;SDS011;10093;48.148;8.542;2022-07-22T05:10:02;7.07;;;6.38;;
19861;SDS011;10093;48.148;8.542;2022-07-22T05:12:28;7.47;;;6.75;;
19861;SDS011;10093;48.148;8.542;2022-07-22T05:14:54;6.97;;;5.85;;
19861;SDS011;10093;48.148;8.542;2022-07-22T05:17:19;7.75;;;5.72;;
19861;SDS011;10093;48.148;8.542;2022-07-22T05:19:45;5.93;;;4.70;;
19861;SDS011;10093;48.148;8.542;2022-07-22T05:22:11;6.38;;;5.72;;
19861;SDS011;10093;48.148;8.542;2022-07-22T05:24:36;6.93;;;4.95;;
19861;SDS011;10093;48.148;8.542;2022-07-22T05:27:02;5.70;;;4.18;;
19861;SDS011;10093;48.148;8.542;2022-07-22T05:29:28;4.53;;;4.18;;
19861;SDS011;10093;48.148;8.542;2022-07-22T05:31:53;5.18;;;4.70;;
19861;SDS011;10093;48.148;8.542;2022-07-22T05:34:19;4.93;;;4.47;;
19861;SDS011;10093;48.148;8.542;2022-07-22T05:36:45;4.55;;;4.15;;
19861;SDS011;10093;48.148;8.542;2022-07-22T05:39:10;6.68;;;4.40;;
19861;SDS011;10093;48.148;8.542;2022-07-22T05:41:36;4.47;;;4.07;;
19861;SDS011;10093;48.148;8.542;2022-07-22T05:44:03;6.45;;;4.22;;
19861;SDS011;10093;48.148;8.542;2022-07-22T05:46:29;3.88;;;3.55;;
19861;SDS011;10093;48.148;8.542;2022-07-22T05:48:55;4.22;;;3.92;;
19861;SDS011;10093;48.148;8.542;2022-07-22T05:51:21;5.18;;;4.63;;
19861;SDS011;10093;48.148;8.542;2022-07-22T05:53:46;9.07;;;4.07;;
19861;SDS011;10093;48.148;8.542;2022-07-22T05:56:12;3.70;;;3.40;;
19861;SDS011;10093;48.148;8.542;2022-07-22T05:58:38;4.22;;;3.83;;
19861;SDS011;10093;48.148;8.542;2022-07-22T06:01:05;4.60;;;4.03;;
19861;SDS011;10093;48.148;8.542;2022-07-22T06:03:31;4.28;;;3.70;;
19861;SDS011;10093;48.148;8.542;2022-07-22T06:05:57;4.68;;;3.70;;
19861;SDS011;10093;48.148;8.542;2022-07-22T06:08:23;5.75;;;3.70;;
19861;SDS011;10093;48.148;8.542;2022-07-22T06:10:48;5.82;;;3.95;;
19861;SDS011;10093;48.148;8.542;2022-07-22T06:13:14;5.15;;;3.67;;
19861;SDS011;10093;48.148;8.542;2022-07-22T06:15:40;4.18;;;3.35;;
19861;SDS011;10093;48.148;8.542;2022-07-22T06:18:05;4.93;;;4.18;;
19861;SDS011;10093;48.148;8.542;2022-07-22T06:20:31;4.07;;;3.78;;
19861;SDS011;10093;48.148;8.542;2022-07-22T06:22:57;4.15;;;3.60;;
19861;SDS011;10093;48.148;8.542;2022-07-22T06:25:22;3.72;;;3.38;;
19861;SDS011;10093;48.148;8.542;2022-07-22T06:27:48;3.95;;;3.65;;
19861;SDS011;10093;48.148;8.542;2022-07-22T06:30:13;4.03;;;3.58;;
19861;SDS011;10093;48.148;8.542;2022-07-22T06:32:39;5.30;;;3.97;;
19861;SDS011;10093;48.148;8.542;2022-07-22T06:35:05;6.20;;;4.90;;
19861;SDS011;10093;48.148;8.542;2022-07-22T06:37:31;7.65;;;4.50;;
19861;SDS011;10093;48.148;8.542;2022-07-22T06:39:57;6.50;;;4.65;;
19861;SDS011;10093;48.148;8.542;2022-07-22T06:42:22;5.72;;;4.63;;
19861;SDS011;10093;48.148;8.542;2022-07-22T06:44:48;7.75;;;4.85;;
19861;SDS011;10093;48.148;8.542;2022-07-22T06:47:14;4.97;;;4.47;;
19861;SDS011;10093;48.148;8.542;2022-07-22T06:49:39;6.82;;;4.20;;
19861;SDS011;10093;48.148;8.542;2022-07-22T06:52:05;10.30;;;5.05;;
19861;SDS011;10093;48.148;8.542;2022-07-22T06:54:31;6.97;;;4.55;;
19861;SDS011;10093;48.148;8.542;2022-07-22T06:56:56;9.10;;;4.60;;
19861;SDS011;10093;48.148;8.542;2022-07-22T06:59:23;5.75;;;3.90;;
19861;SDS011;10093;48.148;8.542;2022-07-22T07:01:49;9.80;;;4.50;;
19861;SDS011;10093;48.148;8.542;2022-07-22T07:04:15;8.93;;;4.70;;
19861;SDS011;10093;48.148;8.542;2022-07-22T07:06:41;13.82;;;5.05;;
19861;SDS011;10093;48.148;8.542;2022-07-22T07:09:07;13.60;;;4.82;;
19861;SDS011;10093;48.148;8.542;2022-07-22T07:11:32;12.93;;;5.13;;
19861;SDS011;10093;48.148;8.542;2022-07-22T07:13:59;6.55;;;4.03;;
19861;SDS011;10093;48.148;8.542;2022-07-22T07:16:26;17.33;;;5.00;;
19861;SDS011;10093;48.148;8.542;2022-07-22T07:18:52;17.63;;;5.35;;
19861;SDS011;10093;48.148;8.542;2022-07-22T07:21:18;9.90;;;5.82;;
19861;SDS011;10093;48.148;8.542;2022-07-22T07:23:43;15.65;;;5.70;;
19861;SDS011;10093;48.148;8.542;2022-07-22T07:26:09;12.27;;;4.53;;
19861;SDS011;10093;48.148;8.542;2022-07-22T07:28:35;7.97;;;5.25;;
19861;SDS011;10093;48.148;8.542;2022-07-22T07:31:01;7.72;;;5.10;;
19861;SDS011;10093;48.148;8.542;2022-07-22T07:33:27;9.77;;;5.45;;
19861;SDS011;10093;48.148;8.542;2022-07-22T07:35:52;11.55;;;4.43;;
19861;SDS011;10093;48.148;8.542;2022-07-22T07:38:18;17.80;;;5.18;;
19861;SDS011;10093;48.148;8.542;2022-07-22T07:40:44;14.90;;;4.15;;
19861;SDS011;10093;48.148;8.542;2022-07-22T07:43:09;17.40;;;5.50;;
19861;SDS011;10093;48.148;8.542;2022-07-22T07:45:35;10.07;;;4.93;;
19861;SDS011;10093;48.148;8.542;2022-07-22T07:48:02;14.90;;;4.78;;
19861;SDS011;10093;48.148;8.542;2022-07-22T07:50:28;7.28;;;4.22;;
19861;SDS011;10093;48.148;8.542;2022-07-22T07:52:54;11.55;;;4.57;;
19861;SDS011;10093;48.148;8.542;2022-07-22T07:55:21;9.93;;;4.93;;
19861;SDS011;10093;48.148;8.542;2022-07-22T07:57:47;10.20;;;4.45;;
19861;SDS011;10093;48.148;8.542;2022-07-22T08:00:14;11.68;;;4.55;;
19861;SDS011;10093;48.148;8.542;2022-07-22T08:02:40;5.78;;;4.40;;
19861;SDS011;10093;48.148;8.542;2022-07-22T08:05:06;5.82;;;3.97;;
19861;SDS011;10093;48.148;8.542;2022-07-22T08:07:33;3.95;;;3.65;;
19861;SDS011;10093;48.148;8.542;2022-07-22T08:09:59;5.65;;;4.00;;
19861;SDS011;10093;48.148;8.542;2022-07-22T08:12:24;5.63;;;4.47;;
19861;SDS011;10093;48.148;8.542;2022-07-22T08:14:50;6.45;;;4.03;;
19861;SDS011;10093;48.148;8.542;2022-07-22T08:17:15;4.85;;;4.00;;
19861;SDS011;10093;48.148;8.542;2022-07-22T08:19:41;4.38;;;3.90;;
19861;SDS011;10093;48.148;8.542;2022-07-22T08:22:07;6.25;;;4.85;;
19861;SDS011;10093;48.148;8.542;2022-07-22T08:24:33;8.05;;;4.80;;
19861;SDS011;10093;48.148;8.542;2022-07-22T08:26:58;5.07;;;4.30;;
19861;SDS011;10093;48.148;8.542;2022-07-22T08:29:24;11.52;;;4.88;;
19861;SDS011;10093;48.148;8.542;2022-07-22T08:31:50;6.88;;;4.68;;
19861;SDS011;10093;48.148;8.542;2022-07-22T08:34:16;8.32;;;5.50;;
19861;SDS011;10093;48.148;8.542;2022-07-22T08:36:41;5.80;;;5.20;;
19861;SDS011;10093;48.148;8.542;2022-07-22T08:39:07;5.80;;;4.85;;
19861;SDS011;10093;48.148;8.542;2022-07-22T08:41:34;6.60;;;4.75;;
19861;SDS011;10093;48.148;8.542;2022-07-22T08:44:02;6.78;;;4.72;;
19861;SDS011;10093;48.148;8.542;2022-07-22T08:46:28;4.60;;;4.20;;
19861;SDS011;10093;48.148;8.542;2022-07-22T08:48:54;5.35;;;4.85;;
19861;SDS011;10093;48.148;8.542;2022-07-22T08:51:20;5.93;;;4.60;;
19861;SDS011;10093;48.148;8.542;2022-07-22T08:53:46;4.70;;;4.30;;
19861;SDS011;10093;48.148;8.542;2022-07-22T08:56:12;10.65;;;4.70;;
19861;SDS011;10093;48.148;8.542;2022-07-22T08:58:39;5.70;;;5.03;;
19861;SDS011;10093;48.148;8.542;2022-07-22T09:01:12;6.60;;;4.70;;
19861;SDS011;10093;48.148;8.542;2022-07-22T09:03:53;7.35;;;5.00;;
19861;SDS011;10093;48.148;8.542;2022-07-22T09:06:21;8.60;;;4.90;;
19861;SDS011;10093;48.148;8.542;2022-07-22T09:08:57;8.48;;;4.68;;
19861;SDS011;10093;48.148;8.542;2022-07-22T09:11:25;4.63;;;4.20;;
19861;SDS011;10093;48.148;8.542;2022-07-22T09:13:53;5.25;;;4.68;;
19861;SDS011;10093;48.148;8.542;2022-07-22T09:16:39;6.65;;;4.45;;
19861;SDS011;10093;48.148;8.542;2022-07-22T09:19:06;6.38;;;4.70;;
19861;SDS011;10093;48.148;8.542;2022-07-22T09:21:34;6.35;;;4.45;;
19861;SDS011;10093;48.148;8.542;2022-07-22T09:24:01;6.43;;;4.40;;
19861;SDS011;10093;48.148;8.542;2022-07-22T09:26:29;5.80;;;4.45;;
19861;SDS011;10093;48.148;8.542;2022-07-22T09:28:59;5.18;;;4.68;;
19861;SDS011;10093;48.148;8.542;2022-07-22T09:31:26;3.97;;;3.65;;
19861;SDS011;10093;48.148;8.542;2022-07-22T09:33:58;12.25;;;4.65;;
19861;SDS011;10093;48.148;8.542;2022-07-22T09:36:24;4.90;;;4.47;;
19861;SDS011;10093;48.148;8.542;2022-07-22T09:38:50;5.15;;;4.13;;
19861;SDS011;10093;48.148;8.542;2022-07-22T09:41:16;4.28;;;3.88;;
19861;SDS011;10093;48.148;8.542;2022-07-22T09:43:42;5.20;;;4.15;;
19861;SDS011;10093;48.148;8.542;2022-07-22T09:46:08;5.60;;;4.65;;
19861;SDS011;10093;48.148;8.542;2022-07-22T09:48:34;6.22;;;4.53;;
19861;SDS011;10093;48.148;8.542;2022-07-22T09:51:02;7.13;;;4.10;;
19861;SDS011;10093;48.148;8.542;2022-07-22T09:53:29;5.15;;;4.40;;
19861;SDS011;10093;48.148;8.542;2022-07-22T09:55:56;4.57;;;3.92;;
19861;SDS011;10093;48.148;8.542;2022-07-22T09:58:22;4.53;;;3.88;;
19861;SDS011;10093;48.148;8.542;2022-07-22T10:00:49;6.20;;;4.15;;
19861;SDS011;10093;48.148;8.542;2022-07-22T10:03:31;4.72;;;4.10;;
19861;SDS011;10093;48.148;8.542;2022-07-22T10:05:59;4.18;;;3.75;;
19861;SDS011;10093;48.148;8.542;2022-07-22T10:08:26;4.22;;;3.65;;
19861;SDS011;10093;48.148;8.542;2022-07-22T10:10:52;5.25;;;3.70;;
19861;SDS011;10093;48.148;8.542;2022-07-22T10:13:23;4.00;;;3.30;;
19861;SDS011;10093;48.148;8.542;2022-07-22T10:15:48;5.40;;;3.50;;
19861;SDS011;10093;48.148;8.542;2022-07-22T10:18:15;5.38;;;3.33;;
19861;SDS011;10093;48.148;8.542;2022-07-22T10:20:42;4.82;;;3.50;;
19861;SDS011;10093;48.148;8.542;2022-07-22T10:23:08;5.07;;;3.25;;
19861;SDS011;10093;48.148;8.542;2022-07-22T10:28:36;4.90;;;3.75;;
19861;SDS011;10093;48.148;8.542;2022-07-22T10:33:44;3.30;;;3.10;;
19861;SDS011;10093;48.148;8.542;2022-07-22T10:36:10;3.92;;;3.33;;
19861;SDS011;10093;48.148;8.542;2022-07-22T10:38:36;3.28;;;3.00;;
19861;SDS011;10093;48.148;8.542;2022-07-22T10:41:04;5.57;;;3.30;;
19861;SDS011;10093;48.148;8.542;2022-07-22T10:46:07;4.60;;;3.78;;
19861;SDS011;10093;48.148;8.542;2022-07-22T10:51:17;5.57;;;3.90;;
19861;SDS011;10093;48.148;8.542;2022-07-22T10:53:53;4.93;;;3.58;;
19861;SDS011;10093;48.148;8.542;2022-07-22T10:58:49;4.32;;;3.58;;
19861;SDS011;10093;48.148;8.542;2022-07-22T11:01:17;3.78;;;3.25;;
19861;SDS011;10093;48.148;8.542;2022-07-22T11:03:45;3.35;;;3.10;;
19861;SDS011;10093;48.148;8.542;2022-07-22T11:06:25;4.60;;;2.85;;
19861;SDS011;10093;48.148;8.542;2022-07-22T11:08:59;6.05;;;3.15;;
19861;SDS011;10093;48.148;8.542;2022-07-22T11:11:33;3.13;;;2.83;;
19861;SDS011;10093;48.148;8.542;2022-07-22T11:13:59;3.63;;;2.85;;
19861;SDS011;10093;48.148;8.542;2022-07-22T11:16:26;3.10;;;2.80;;
19861;SDS011;10093;48.148;8.542;2022-07-22T11:19:00;4.43;;;2.72;;
19861;SDS011;10093;48.148;8.542;2022-07-22T11:21:28;5.73;;;2.93;;
19861;SDS011;10093;48.148;8.542;2022-07-22T11:23:56;4.50;;;2.92;;
19861;SDS011;10093;48.148;8.542;2022-07-22T11:26:32;4.68;;;3.03;;
19861;SDS011;10093;48.148;8.542;2022-07-22T11:31:24;5.20;;;2.83;;
19861;SDS011;10093;48.148;8.542;2022-07-22T11:33:49;3.00;;;2.80;;
19861;SDS011;10093;48.148;8.542;2022-07-22T11:36:15;3.45;;;2.90;;
19861;SDS011;10093;48.148;8.542;2022-07-22T11:41:10;3.10;;;2.90;;
19861;SDS011;10093;48.148;8.542;2022-07-22T11:43:43;4.95;;;2.95;;
19861;SDS011;10093;48.148;8.542;2022-07-22T11:46:13;4.78;;;2.90;;
19861;SDS011;10093;48.148;8.542;2022-07-22T11:48:40;4.78;;;3.00;;
19861;SDS011;10093;48.148;8.542;2022-07-22T11:51:08;2.97;;;2.78;;
19861;SDS011;10093;48.148;8.542;2022-07-22T11:53:40;3.83;;;2.80;;
19861;SDS011;10093;48.148;8.542;2022-07-22T11:56:08;4.70;;;2.83;;
19861;SDS011;10093;48.148;8.542;2022-07-22T11:58:36;2.83;;;2.63;;
19861;SDS011;10093;48.148;8.542;2022-07-22T12:01:03;4.57;;;3.20;;
19861;SDS011;10093;48.148;8.542;2022-07-22T12:03:31;3.47;;;3.17;;
19861;SDS011;10093;48.148;8.542;2022-07-22T12:05:58;7.38;;;3.17;;
19861;SDS011;10093;48.148;8.542;2022-07-22T12:08:24;4.90;;;3.33;;
19861;SDS011;10093;48.148;8.542;2022-07-22T12:10:50;3.35;;;3.13;;
19861;SDS011;10093;48.148;8.542;2022-07-22T12:13:16;5.00;;;3.28;;
19861;SDS011;10093;48.148;8.542;2022-07-22T12:15:41;6.25;;;3.28;;
19861;SDS011;10093;48.148;8.542;2022-07-22T12:18:20;4.10;;;3.28;;
19861;SDS011;10093;48.148;8.542;2022-07-22T12:20:47;3.58;;;3.28;;
19861;SDS011;10093;48.148;8.542;2022-07-22T12:23:14;3.53;;;3.33;;
19861;SDS011;10093;48.148;8.542;2022-07-22T12:25:49;3.50;;;3.25;;
19861;SDS011;10093;48.148;8.542;2022-07-22T12:28:15;5.93;;;4.25;;
19861;SDS011;10093;48.148;8.542;2022-07-22T12:30:41;5.85;;;3.67;;
19861;SDS011;10093;48.148;8.542;2022-07-22T12:33:12;4.25;;;3.20;;
19861;SDS011;10093;48.148;8.542;2022-07-22T12:35:40;3.13;;;2.92;;
19861;SDS011;10093;48.148;8.542;2022-07-22T12:38:09;3.50;;;3.30;;
19861;SDS011;10093;48.148;8.542;2022-07-22T12:40:36;3.42;;;3.13;;
19861;SDS011;10093;48.148;8.542;2022-07-22T12:45:35;6.28;;;3.05;;
19861;SDS011;10093;48.148;8.542;2022-07-22T12:53:07;7.07;;;3.20;;
19861;SDS011;10093;48.148;8.542;2022-07-22T12:55:36;3.83;;;2.72;;
19861;SDS011;10093;48.148;8.542;2022-07-22T12:58:16;4.82;;;2.97;;
19861;SDS011;10093;48.148;8.542;2022-07-22T13:00:44;5.07;;;2.75;;
19861;SDS011;10093;48.148;8.542;2022-07-22T13:03:11;6.40;;;3.13;;
19861;SDS011;10093;48.148;8.542;2022-07-22T13:05:37;3.45;;;2.70;;
19861;SDS011;10093;48.148;8.542;2022-07-22T13:08:03;5.55;;;3.13;;
19861;SDS011;10093;48.148;8.542;2022-07-22T13:10:29;2.90;;;2.60;;
19861;SDS011;10093;48.148;8.542;2022-07-22T13:12:55;3.08;;;2.78;;
19861;SDS011;10093;48.148;8.542;2022-07-22T13:15:21;3.17;;;2.70;;
19861;SDS011;10093;48.148;8.542;2022-07-22T13:17:48;3.25;;;2.95;;
19861;SDS011;10093;48.148;8.542;2022-07-22T13:20:14;3.05;;;2.40;;
19861;SDS011;10093;48.148;8.542;2022-07-22T13:22:42;2.67;;;2.47;;
19861;SDS011;10093;48.148;8.542;2022-07-22T13:25:08;4.10;;;2.55;;
19861;SDS011;10093;48.148;8.542;2022-07-22T13:27:34;5.18;;;2.50;;
19861;SDS011;10093;48.148;8.542;2022-07-22T13:30:00;3.40;;;2.63;;
19861;SDS011;10093;48.148;8.542;2022-07-22T13:32:26;2.90;;;2.70;;
19861;SDS011;10093;48.148;8.542;2022-07-22T13:34:51;2.90;;;2.70;;
19861;SDS011;10093;48.148;8.542;2022-07-22T13:37:17;3.55;;;3.22;;
19861;SDS011;10093;48.148;8.542;2022-07-22T13:39:43;3.67;;;3.20;;
19861;SDS011;10093;48.148;8.542;2022-07-22T13:42:12;4.88;;;3.35;;
19861;SDS011;10093;48.148;8.542;2022-07-22T13:44:38;3.50;;;3.22;;
19861;SDS011;10093;48.148;8.542;2022-07-22T13:47:03;3.60;;;3.15;;
19861;SDS011;10093;48.148;8.542;2022-07-22T13:49:29;4.13;;;3.35;;
19861;SDS011;10093;48.148;8.542;2022-07-22T13:51:55;3.65;;;3.35;;
19861;SDS011;10093;48.148;8.542;2022-07-22T13:54:20;4.80;;;2.90;;
19861;SDS011;10093;48.148;8.542;2022-07-22T13:56:46;2.70;;;2.50;;
19861;SDS011;10093;48.148;8.542;2022-07-22T13:59:13;3.65;;;3.28;;
19861;SDS011;10093;48.148;8.542;2022-07-22T14:01:39;3.33;;;3.10;;
19861;SDS011;10093;48.148;8.542;2022-07-22T14:04:05;4.90;;;3.38;;
19861;SDS011;10093;48.148;8.542;2022-07-22T14:06:31;3.60;;;3.35;;
19861;SDS011;10093;48.148;8.542;2022-07-22T14:08:57;4.20;;;3.20;;
19861;SDS011;10093;48.148;8.542;2022-07-22T14:11:23;3.70;;;3.15;;
19861;SDS011;10093;48.148;8.542;2022-07-22T14:13:49;3.88;;;3.20;;
19861;SDS011;10093;48.148;8.542;2022-07-22T14:16:14;4.05;;;3.03;;
19861;SDS011;10093;48.148;8.542;2022-07-22T14:18:59;3.83;;;3.28;;
19861;SDS011;10093;48.148;8.542;2022-07-22T14:21:36;3.33;;;3.00;;
19861;SDS011;10093;48.148;8.542;2022-07-22T14:24:04;3.42;;;3.20;;
19861;SDS011;10093;48.148;8.542;2022-07-22T14:26:30;3.60;;;3.30;;
19861;SDS011;10093;48.148;8.542;2022-07-22T14:28:56;3.47;;;3.22;;
19861;SDS011;10093;48.148;8.542;2022-07-22T14:31:22;3.67;;;3.40;;
19861;SDS011;10093;48.148;8.542;2022-07-22T14:33:48;3.63;;;3.33;;
19861;SDS011;10093;48.148;8.542;2022-07-22T14:36:14;4.03;;;3.25;;
19861;SDS011;10093;48.148;8.542;2022-07-22T14:38:40;3.33;;;3.00;;
19861;SDS011;10093;48.148;8.542;2022-07-22T14:41:06;3.28;;;2.97;;
19861;SDS011;10093;48.148;8.542;2022-07-22T14:43:33;5.82;;;3.30;;
19861;SDS011;10093;48.148;8.542;2022-07-22T14:45:59;3.83;;;3.47;;
19861;SDS011;10093;48.148;8.542;2022-07-22T14:48:26;6.40;;;3.47;;
19861;SDS011;10093;48.148;8.542;2022-07-22T14:50:52;4.15;;;3.53;;
19861;SDS011;10093;48.148;8.542;2022-07-22T14:53:18;4.07;;;3.60;;
19861;SDS011;10093;48.148;8.542;2022-07-22T14:55:43;4.57;;;3.70;;
19861;SDS011;10093;48.148;8.542;2022-07-22T14:58:09;3.70;;;3.40;;
19861;SDS011;10093;48.148;8.542;2022-07-22T15:00:35;4.20;;;3.80;;
19861;SDS011;10093;48.148;8.542;2022-07-22T15:03:00;4.80;;;3.58;;
19861;SDS011;10093;48.148;8.542;2022-07-22T15:05:26;7.85;;;3.60;;